createdAt,value
2023-02-15T00:00:45.557Z,93.73
2023-02-15T00:02:47.028Z,93.90
2023-02-15T00:04:48.573Z,93.72
2023-02-15T00:06:50.657Z,94.02
2023-02-15T00:08:52.418Z,93.82
2023-02-15T00:10:54.245Z,93.59
2023-02-15T00:12:55.673Z,93.69
2023-02-15T00:14:57.142Z,94.01
2023-02-15T00:17:00.742Z,93.90
2023-02-15T00:19:02.891Z,94.08
2023-02-15T00:21:09.659Z,94.08
2023-02-15T00:23:11.101Z,94.07
2023-02-15T00:25:12.573Z,93.88
2023-02-15T00:27:14.065Z,94.04
2023-02-15T00:29:17.534Z,94.10
2023-02-15T00:31:19.381Z,94.17
2023-02-15T00:33:20.860Z,93.86
2023-02-15T00:35:22.550Z,94.14
2023-02-15T00:37:24.020Z,94.32
2023-02-15T00:39:25.595Z,94.21
2023-02-15T00:41:27.116Z,93.88
2023-02-15T00:43:30.833Z,94.00
2023-02-15T00:45:32.285Z,94.11
2023-02-15T00:47:33.760Z,93.97
2023-02-15T00:49:35.233Z,94.32
2023-02-15T00:51:36.877Z,94.24
2023-02-15T00:53:38.349Z,94.05
2023-02-15T00:55:41.250Z,94.24
2023-02-15T00:57:42.686Z,94.44
2023-02-15T00:59:44.150Z,94.20
2023-02-15T01:01:45.696Z,93.88
2023-02-15T01:03:47.690Z,94.10
2023-02-15T01:05:50.326Z,94.28
2023-02-15T01:07:54.057Z,93.97
2023-02-15T01:09:55.897Z,94.34
2023-02-15T01:11:57.382Z,93.97
2023-02-15T01:13:59.526Z,94.28
2023-02-15T01:16:01.770Z,94.07
2023-02-15T01:18:03.655Z,94.12
2023-02-15T01:20:06.131Z,94.08
2023-02-15T01:22:07.601Z,94.04
2023-02-15T01:24:14.351Z,93.96
2023-02-15T01:26:16.385Z,93.75
2023-02-15T01:28:17.895Z,94.01
2023-02-15T01:30:19.585Z,93.42
2023-02-15T01:32:21.118Z,93.86
2023-02-15T01:34:22.585Z,94.01
2023-02-15T01:36:24.148Z,93.42
2023-02-15T01:38:25.589Z,93.97
2023-02-15T01:40:27.081Z,93.42
2023-02-15T01:42:29.885Z,93.58
2023-02-15T01:44:51.723Z,94.04
2023-02-15T01:46:54.676Z,94.06
2023-02-15T01:49:26.128Z,93.91
2023-02-15T01:51:31.718Z,93.96
2023-02-15T01:53:48.577Z,94.56
2023-02-15T01:56:31.484Z,94.28
2023-02-15T01:58:35.886Z,94.56
2023-02-15T02:00:37.508Z,94.49
2023-02-15T02:02:39.727Z,93.82
2023-02-15T02:04:44.664Z,94.19
2023-02-15T02:06:48.934Z,93.82
2023-02-15T02:08:50.750Z,94.32
2023-02-15T02:10:52.188Z,93.83
2023-02-15T02:12:58.821Z,94.25
2023-02-15T02:15:00.413Z,94.16
2023-02-15T02:17:07.548Z,94.33
2023-02-15T02:19:52.144Z,94.22
2023-02-15T02:22:16.455Z,94.27
2023-02-15T02:24:33.664Z,94.38
2023-02-15T02:26:47.226Z,94.00
2023-02-15T02:29:10.017Z,94.39
2023-02-15T02:31:39.471Z,94.49
2023-02-15T02:33:49.578Z,94.23
2023-02-15T02:36:12.761Z,94.17
2023-02-15T02:38:36.732Z,94.18
2023-02-15T02:40:51.673Z,94.30
2023-02-15T02:43:15.684Z,94.31
2023-02-15T02:45:26.388Z,94.06
2023-02-15T02:47:34.122Z,94.53
2023-02-15T02:49:38.541Z,94.58
2023-02-15T02:51:40.007Z,94.49
2023-02-15T02:53:41.867Z,93.95
2023-02-15T02:55:50.499Z,94.65
2023-02-15T02:57:56.848Z,94.83
2023-02-15T03:00:00.581Z,94.38
2023-02-15T03:02:41.613Z,94.27
2023-02-15T03:04:58.882Z,94.65
2023-02-15T03:07:08.500Z,94.32
2023-02-15T03:09:19.119Z,94.47
2023-02-15T03:11:20.569Z,94.49
2023-02-15T03:13:23.152Z,94.14
2023-02-15T03:15:50.538Z,94.32
2023-02-15T03:17:58.572Z,94.62
2023-02-15T03:20:05.396Z,94.26
2023-02-15T03:22:20.356Z,94.47
2023-02-15T03:24:27.433Z,94.71
2023-02-15T03:26:31.358Z,94.64
2023-02-15T03:28:39.503Z,94.57
2023-02-15T03:30:45.621Z,94.55
2023-02-15T03:32:49.803Z,95.05
2023-02-15T03:34:51.470Z,95.18
2023-02-15T03:37:00.703Z,94.72
2023-02-15T03:39:13.280Z,95.20
2023-02-15T03:41:17.145Z,95.23
2023-02-15T03:43:54.021Z,94.73
2023-02-15T03:46:01.533Z,94.97
2023-02-15T03:48:06.295Z,95.25
2023-02-15T03:50:35.216Z,95.08
2023-02-15T03:52:37.875Z,95.38
2023-02-15T03:54:43.665Z,95.19
2023-02-15T03:57:05.334Z,95.48
2023-02-15T03:59:25.468Z,95.39
2023-02-15T04:01:56.565Z,95.10
2023-02-15T04:04:08.476Z,95.39
2023-02-15T04:06:09.942Z,95.20
2023-02-15T04:08:12.637Z,95.07
2023-02-15T04:10:32.903Z,94.99
2023-02-15T04:12:34.404Z,95.49
2023-02-15T04:14:54.646Z,95.30
2023-02-15T04:16:56.165Z,95.37
2023-02-15T04:19:16.218Z,95.72
2023-02-15T04:21:36.549Z,95.59
2023-02-15T04:23:56.248Z,95.21
2023-02-15T04:25:57.685Z,95.06
2023-02-15T04:27:59.132Z,95.18
2023-02-15T04:30:00.657Z,95.63
2023-02-15T04:32:03.285Z,95.56
2023-02-15T04:34:04.777Z,95.53
2023-02-15T04:36:06.359Z,95.67
2023-02-15T04:38:07.829Z,95.49
2023-02-15T04:40:11.655Z,95.17
2023-02-15T04:42:13.133Z,95.35
2023-02-15T04:44:14.673Z,95.07
2023-02-15T04:46:16.177Z,95.06
2023-02-15T04:48:18.674Z,95.04
2023-02-15T04:50:20.178Z,95.25
2023-02-15T04:52:21.975Z,95.42
2023-02-15T04:54:23.520Z,95.16
2023-02-15T04:56:25.041Z,95.90
2023-02-15T04:58:26.485Z,95.05
2023-02-15T05:00:28.468Z,95.40
2023-02-15T05:02:29.943Z,95.48
2023-02-15T05:04:31.661Z,94.78
2023-02-15T05:06:33.148Z,95.21
2023-02-15T05:08:34.615Z,95.50
2023-02-15T05:10:36.044Z,95.39
2023-02-15T05:12:37.557Z,95.53
2023-02-15T05:14:38.976Z,95.55
2023-02-15T05:16:40.509Z,95.75
2023-02-15T05:18:42.102Z,95.82
2023-02-15T05:20:43.646Z,95.72
2023-02-15T05:22:45.166Z,95.29
2023-02-15T05:25:05.316Z,95.59
2023-02-15T05:27:25.114Z,95.37
2023-02-15T05:29:26.557Z,95.43
2023-02-15T05:31:28.609Z,95.51
2023-02-15T05:33:30.354Z,95.72
2023-02-15T05:35:33.024Z,95.28
2023-02-15T05:37:34.817Z,95.25
2023-02-15T05:39:36.270Z,95.42
2023-02-15T05:41:37.745Z,95.31
2023-02-15T05:43:39.830Z,95.04
2023-02-15T05:45:41.337Z,95.38
2023-02-15T05:47:43.371Z,95.03
2023-02-15T05:49:44.793Z,95.53
2023-02-15T05:51:46.326Z,95.16
2023-02-15T05:53:47.789Z,94.72
2023-02-15T05:55:49.252Z,95.04
2023-02-15T05:57:50.729Z,95.42
2023-02-15T05:59:52.172Z,95.02
2023-02-15T06:01:53.620Z,94.80
2023-02-15T06:03:56.726Z,95.30
2023-02-15T06:05:58.208Z,95.40
2023-02-15T06:07:59.794Z,95.20
2023-02-15T06:10:01.242Z,95.04
2023-02-15T06:12:03.160Z,95.47
2023-02-15T06:14:04.743Z,95.17
2023-02-15T06:16:07.070Z,95.22
2023-02-15T06:18:08.823Z,95.43
2023-02-15T06:20:10.896Z,95.24
2023-02-15T06:22:14.900Z,94.89
2023-02-15T06:24:16.654Z,95.37
2023-02-15T06:26:18.076Z,95.20
2023-02-15T06:28:19.583Z,95.09
2023-02-15T06:30:21.395Z,94.96
2023-02-15T06:32:22.959Z,95.43
2023-02-15T06:34:24.529Z,95.46
2023-02-15T06:36:26.020Z,95.58
2023-02-15T06:38:27.842Z,95.13
2023-02-15T06:40:29.270Z,95.34
2023-02-15T06:42:31.295Z,95.40
2023-02-15T06:44:32.762Z,95.16
2023-02-15T06:46:34.386Z,95.27
2023-02-15T06:48:36.329Z,95.18
2023-02-15T06:50:38.625Z,95.01
2023-02-15T06:52:40.068Z,94.99
2023-02-15T06:54:41.615Z,95.06
2023-02-15T06:56:44.501Z,95.24
2023-02-15T06:58:50.430Z,94.95
2023-02-15T07:00:52.723Z,94.90
2023-02-15T07:02:56.643Z,94.66
2023-02-15T07:04:58.228Z,95.00
2023-02-15T07:06:59.697Z,94.74
2023-02-15T07:09:01.222Z,94.89
2023-02-15T07:11:23.070Z,94.68
2023-02-15T07:13:24.511Z,94.47
2023-02-15T07:15:26.030Z,94.47
2023-02-15T07:17:36.941Z,94.64
2023-02-15T07:19:38.574Z,94.67
2023-02-15T07:21:40.065Z,94.44
2023-02-15T07:23:41.600Z,94.42
2023-02-15T07:25:43.067Z,94.47
2023-02-15T07:27:45.750Z,94.36
2023-02-15T07:29:47.361Z,94.31
2023-02-15T07:31:48.825Z,94.24
2023-02-15T07:33:50.259Z,94.45
2023-02-15T07:35:58.859Z,94.47
2023-02-15T07:38:01.002Z,94.32
2023-02-15T07:40:02.501Z,94.22
2023-02-15T07:42:04.023Z,93.89
2023-02-15T07:44:05.693Z,93.91
2023-02-15T07:46:13.290Z,94.02
2023-02-15T07:48:14.769Z,93.65
2023-02-15T07:50:16.325Z,93.52
2023-02-15T07:52:17.777Z,93.58
2023-02-15T07:54:19.320Z,93.92
2023-02-15T07:56:20.795Z,93.74
2023-02-15T07:58:22.239Z,93.76
2023-02-15T08:00:26.755Z,93.51
2023-02-15T08:02:29.893Z,93.47
2023-02-15T08:04:32.131Z,93.23
2023-02-15T08:06:36.144Z,93.38
2023-02-15T08:08:38.636Z,92.73
2023-02-15T08:10:58.644Z,92.81
2023-02-15T08:13:00.158Z,92.78
2023-02-15T08:15:01.613Z,92.75
2023-02-15T08:17:05.890Z,92.76
2023-02-15T08:19:08.811Z,92.83
2023-02-15T08:21:10.272Z,93.06
2023-02-15T08:23:11.720Z,92.78
2023-02-15T08:25:13.321Z,92.64
2023-02-15T08:27:14.780Z,93.84
2023-02-15T08:29:19.326Z,92.86
2023-02-15T08:31:21.859Z,93.36
2023-02-15T08:33:23.472Z,93.51
2023-02-15T08:35:24.948Z,93.17
2023-02-15T08:37:26.984Z,93.34
2023-02-15T08:39:28.798Z,93.34
2023-02-15T08:41:38.406Z,93.27
2023-02-15T08:43:40.103Z,94.08
2023-02-15T08:45:42.443Z,94.08
2023-02-15T08:47:43.935Z,94.09
2023-02-15T08:49:45.386Z,94.10
2023-02-15T08:51:48.084Z,94.25
2023-02-15T08:53:52.102Z,94.28
2023-02-15T08:55:58.141Z,94.53
2023-02-15T08:57:59.611Z,94.50
2023-02-15T09:00:01.102Z,94.53
2023-02-15T09:02:03.949Z,95.11
2023-02-15T09:04:09.582Z,95.58
2023-02-15T09:06:11.934Z,95.48
2023-02-15T09:08:13.421Z,95.38
2023-02-15T09:10:14.893Z,95.99
2023-02-15T09:12:16.330Z,96.15
2023-02-15T09:14:24.428Z,96.19
2023-02-15T09:16:28.988Z,96.25
2023-02-15T09:18:32.739Z,96.90
2023-02-15T09:20:37.330Z,97.26
2023-02-15T09:22:38.808Z,97.16
2023-02-15T09:24:40.345Z,97.77
2023-02-15T09:26:44.589Z,98.27
2023-02-15T09:28:47.006Z,98.45
2023-02-15T09:30:48.595Z,98.65
2023-02-15T09:32:50.189Z,98.91
2023-02-15T09:34:51.639Z,99.29
2023-02-15T09:36:53.148Z,99.54
2023-02-15T09:38:59.336Z,99.67
2023-02-15T09:41:28.391Z,99.43
2023-02-15T09:43:59.241Z,99.37
2023-02-15T09:46:23.583Z,99.52
2023-02-15T09:48:46.190Z,99.51
2023-02-15T09:51:32.834Z,99.57
2023-02-15T09:53:36.900Z,99.33
2023-02-15T09:55:58.165Z,99.25
2023-02-15T09:58:13.978Z,99.11
2023-02-15T10:00:53.619Z,98.96
2023-02-15T10:03:20.777Z,98.86
2023-02-15T10:05:40.499Z,98.77
2023-02-15T10:07:41.904Z,98.41
2023-02-15T10:09:47.936Z,98.69
2023-02-15T10:12:04.734Z,98.97
2023-02-15T10:14:45.366Z,99.34
2023-02-15T10:17:22.631Z,99.70
2023-02-15T10:19:45.547Z,100.00
2023-02-15T10:22:05.811Z,100.00
2023-02-15T10:24:31.114Z,100.00
2023-02-15T10:26:43.625Z,100.00
2023-02-15T10:28:47.987Z,100.00
2023-02-15T10:30:52.609Z,100.00
2023-02-15T10:33:11.693Z,100.00
2023-02-15T10:35:32.012Z,100.00
2023-02-15T10:37:54.503Z,100.00
2023-02-15T10:40:08.434Z,100.00
2023-02-15T10:42:27.474Z,100.00
2023-02-15T10:45:05.317Z,100.00
2023-02-15T10:47:22.897Z,100.00
2023-02-15T10:49:42.459Z,100.00
2023-02-15T10:51:50.098Z,100.00
2023-02-15T10:54:23.853Z,100.00
2023-02-15T10:56:33.970Z,100.00
2023-02-15T10:58:59.927Z,100.00
2023-02-15T11:01:27.880Z,100.00
2023-02-15T11:03:47.816Z,99.93
2023-02-15T11:06:14.605Z,98.85
2023-02-15T11:08:16.635Z,97.54
2023-02-15T11:10:39.199Z,96.83
2023-02-15T11:12:44.249Z,95.84
2023-02-15T11:14:51.971Z,94.82
2023-02-15T11:17:05.868Z,94.21
2023-02-15T11:19:25.189Z,92.47
2023-02-15T11:21:48.130Z,91.54
2023-02-15T11:23:50.202Z,90.22
2023-02-15T11:25:59.901Z,88.29
2023-02-15T11:28:05.538Z,84.15
2023-02-15T11:30:15.641Z,80.27
2023-02-15T11:32:31.119Z,78.40
2023-02-15T11:34:37.421Z,77.53
2023-02-15T11:36:42.087Z,75.34
2023-02-15T11:38:45.762Z,74.11
2023-02-15T11:40:49.086Z,72.37
2023-02-15T11:42:54.858Z,69.43
2023-02-15T11:45:32.413Z,69.30
2023-02-15T11:47:34.090Z,67.00
2023-02-15T11:49:36.426Z,65.46
2023-02-15T11:51:38.019Z,62.85
2023-02-15T11:53:40.049Z,60.79
2023-02-15T11:55:47.244Z,62.24
2023-02-15T11:58:27.164Z,60.59
2023-02-15T12:00:44.216Z,58.06
2023-02-15T12:02:54.428Z,57.64
2023-02-15T12:05:02.198Z,57.10
2023-02-15T12:07:23.495Z,56.24
2023-02-15T12:09:41.780Z,56.23
2023-02-15T12:11:43.261Z,56.77
2023-02-15T12:14:12.713Z,55.21
2023-02-15T12:16:14.498Z,54.01
2023-02-15T12:18:40.446Z,53.84
2023-02-15T12:20:42.334Z,53.07
2023-02-15T12:22:51.637Z,54.23
2023-02-15T12:24:59.729Z,52.26
2023-02-15T12:27:19.656Z,54.83
2023-02-15T12:29:27.105Z,55.96
2023-02-15T12:31:44.825Z,57.31
2023-02-15T12:33:46.951Z,58.30
2023-02-15T12:35:50.842Z,58.52
2023-02-15T12:37:56.168Z,59.96
2023-02-15T12:40:00.044Z,60.60
2023-02-15T12:42:17.583Z,61.42
2023-02-15T12:44:27.674Z,62.87
2023-02-15T12:46:29.247Z,63.17
2023-02-15T12:48:30.710Z,63.53
2023-02-15T12:50:35.289Z,63.35
2023-02-15T12:52:36.858Z,64.11
2023-02-15T12:54:42.983Z,64.09
2023-02-15T12:56:44.502Z,65.44
2023-02-15T12:58:47.002Z,64.55
2023-02-15T13:00:48.834Z,64.12
2023-02-15T13:02:56.073Z,65.39
2023-02-15T13:05:05.912Z,66.18
2023-02-15T13:07:12.004Z,65.35
2023-02-15T13:09:21.003Z,65.12
2023-02-15T13:11:25.851Z,65.76
2023-02-15T13:13:33.021Z,66.45
2023-02-15T13:15:41.573Z,66.27
2023-02-15T13:17:44.933Z,66.13
2023-02-15T13:19:50.945Z,64.57
2023-02-15T13:21:54.249Z,64.24
2023-02-15T13:24:26.761Z,63.94
2023-02-15T13:26:32.245Z,65.11
2023-02-15T13:28:48.103Z,65.30
2023-02-15T13:30:50.278Z,65.13
2023-02-15T13:32:57.084Z,65.47
2023-02-15T13:35:00.535Z,65.43
2023-02-15T13:37:43.370Z,64.44
2023-02-15T13:39:52.485Z,63.75
2023-02-15T13:42:06.877Z,64.18
2023-02-15T13:44:35.601Z,64.05
2023-02-15T13:46:55.378Z,63.79
2023-02-15T13:48:59.696Z,64.79
2023-02-15T13:51:25.889Z,63.16
2023-02-15T13:53:57.072Z,63.82
2023-02-15T13:56:22.074Z,63.18
2023-02-15T13:58:45.542Z,62.61
2023-02-15T14:01:02.465Z,62.56
2023-02-15T14:03:28.318Z,62.71
2023-02-15T14:06:07.498Z,61.63
2023-02-15T14:08:27.693Z,61.94
2023-02-15T14:10:41.261Z,61.55
2023-02-15T14:12:57.924Z,61.11
2023-02-15T14:15:21.234Z,62.08
2023-02-15T14:17:59.847Z,62.55
2023-02-15T14:20:07.927Z,61.64
2023-02-15T14:22:35.447Z,61.06
2023-02-15T14:24:52.378Z,63.11
2023-02-15T14:27:13.768Z,61.31
2023-02-15T14:29:20.992Z,62.03
2023-02-15T14:31:31.611Z,62.60
2023-02-15T14:33:40.922Z,62.80
2023-02-15T14:35:43.848Z,63.57
2023-02-15T14:37:51.485Z,63.72
2023-02-15T14:40:21.162Z,64.17
2023-02-15T14:42:44.640Z,65.16
2023-02-15T14:44:58.104Z,63.78
2023-02-15T14:47:03.665Z,65.00
2023-02-15T14:49:26.615Z,64.72
2023-02-15T14:51:46.900Z,65.07
2023-02-15T14:53:48.459Z,65.35
2023-02-15T14:56:11.218Z,65.68
2023-02-15T14:58:14.544Z,66.14
2023-02-15T15:00:37.724Z,66.46
2023-02-15T15:02:53.375Z,67.07
2023-02-15T15:05:33.565Z,66.58
2023-02-15T15:07:48.597Z,67.09
2023-02-15T15:10:00.756Z,67.44
2023-02-15T15:12:14.456Z,67.64
2023-02-15T15:14:34.327Z,68.06
2023-02-15T15:16:38.909Z,67.97
2023-02-15T15:18:46.513Z,68.36
2023-02-15T15:20:51.628Z,68.38
2023-02-15T15:23:15.513Z,68.60
2023-02-15T15:25:38.765Z,68.61
2023-02-15T15:27:49.662Z,69.14
2023-02-15T15:29:51.138Z,69.00
2023-02-15T15:31:56.486Z,69.46
2023-02-15T15:34:22.727Z,69.72
2023-02-15T15:36:51.458Z,69.76
2023-02-15T15:39:16.702Z,70.25
2023-02-15T15:41:29.041Z,70.69
2023-02-15T15:43:51.490Z,71.03
2023-02-15T15:46:18.993Z,70.84
2023-02-15T15:48:31.646Z,71.23
2023-02-15T15:50:33.539Z,71.53
2023-02-15T15:52:39.598Z,71.58
2023-02-15T15:54:43.012Z,71.89
2023-02-15T15:56:52.011Z,71.59
2023-02-15T15:58:59.684Z,72.44
2023-02-15T16:01:28.104Z,72.13
2023-02-15T16:03:29.843Z,72.54
2023-02-15T16:05:41.079Z,72.58
2023-02-15T16:07:42.673Z,73.87
2023-02-15T16:09:59.638Z,73.51
2023-02-15T16:12:02.836Z,74.59
2023-02-15T16:14:04.345Z,74.61
2023-02-15T16:16:07.496Z,74.57
2023-02-15T16:18:16.132Z,74.97
2023-02-15T16:20:27.821Z,74.92
2023-02-15T16:22:30.017Z,74.61
2023-02-15T16:25:06.138Z,74.76
2023-02-15T16:27:33.966Z,75.59
2023-02-15T16:29:35.575Z,75.73
2023-02-15T16:31:37.242Z,76.26
2023-02-15T16:33:40.532Z,76.00
2023-02-15T16:35:57.263Z,75.81
2023-02-15T16:37:58.774Z,76.34
2023-02-15T16:40:00.962Z,76.70
2023-02-15T16:42:05.246Z,77.24
2023-02-15T16:44:15.840Z,77.18
2023-02-15T16:46:40.424Z,77.14
2023-02-15T16:48:46.028Z,78.01
2023-02-15T16:50:51.520Z,77.77
2023-02-15T16:52:53.335Z,78.17
2023-02-15T16:54:58.950Z,78.31
2023-02-15T16:57:00.788Z,79.26
2023-02-15T16:59:02.873Z,79.26
2023-02-15T17:01:08.867Z,78.93
2023-02-15T17:03:13.334Z,79.68
2023-02-15T17:05:20.863Z,79.67
2023-02-15T17:07:22.594Z,80.43
2023-02-15T17:09:26.319Z,79.97
2023-02-15T17:11:42.305Z,79.88
2023-02-15T17:14:07.671Z,80.64
2023-02-15T17:16:34.279Z,80.70
2023-02-15T17:18:38.489Z,80.83
2023-02-15T17:20:42.905Z,80.96
2023-02-15T17:22:44.382Z,81.18
2023-02-15T17:24:48.972Z,81.03
2023-02-15T17:27:00.695Z,81.48
2023-02-15T17:29:11.301Z,81.99
2023-02-15T17:31:17.274Z,82.29
2023-02-15T17:33:29.892Z,82.14
2023-02-15T17:35:33.709Z,82.55
2023-02-15T17:37:38.122Z,82.50
2023-02-15T17:39:41.361Z,83.03
2023-02-15T17:41:42.980Z,83.02
2023-02-15T17:43:44.399Z,82.80
2023-02-15T17:45:50.111Z,82.99
2023-02-15T17:47:51.882Z,83.16
2023-02-15T17:49:53.638Z,83.31
2023-02-15T17:51:55.173Z,83.08
2023-02-15T17:54:15.346Z,83.58
2023-02-15T17:56:16.764Z,83.56
2023-02-15T17:58:19.598Z,83.35
2023-02-15T18:00:40.039Z,83.90
2023-02-15T18:03:00.669Z,83.77
2023-02-15T18:05:20.518Z,83.62
2023-02-15T18:07:40.291Z,84.22
2023-02-15T18:10:00.812Z,84.29
2023-02-15T18:12:03.251Z,84.50
2023-02-15T18:14:07.215Z,84.26
2023-02-15T18:16:22.843Z,84.41
2023-02-15T18:18:24.440Z,84.68
2023-02-15T18:20:32.691Z,84.92
2023-02-15T18:22:34.221Z,84.95
2023-02-15T18:24:35.679Z,84.63
2023-02-15T18:26:37.166Z,85.21
2023-02-15T18:28:38.654Z,85.15
2023-02-15T18:30:45.071Z,85.37
2023-02-15T18:32:48.297Z,85.18
2023-02-15T18:34:49.793Z,85.40
2023-02-15T18:36:52.343Z,85.04
2023-02-15T18:38:57.890Z,85.70
2023-02-15T18:40:59.381Z,85.81
2023-02-15T18:43:00.909Z,85.74
2023-02-15T18:45:12.368Z,85.88
2023-02-15T18:47:13.841Z,86.31
2023-02-15T18:49:15.294Z,86.18
2023-02-15T18:51:21.638Z,86.03
2023-02-15T18:53:23.332Z,85.82
2023-02-15T18:55:27.964Z,86.37
2023-02-15T18:57:30.305Z,86.43
2023-02-15T18:59:32.497Z,86.45
2023-02-15T19:01:34.011Z,86.40
2023-02-15T19:03:35.491Z,86.25
2023-02-15T19:05:37.024Z,86.21
2023-02-15T19:07:39.294Z,86.52
2023-02-15T19:09:41.374Z,86.22
2023-02-15T19:11:48.155Z,86.53
2023-02-15T19:13:52.301Z,86.95
2023-02-15T19:15:53.768Z,87.13
2023-02-15T19:17:55.724Z,87.01
2023-02-15T19:19:57.182Z,86.94
2023-02-15T19:21:58.742Z,86.73
2023-02-15T19:24:05.336Z,86.99
2023-02-15T19:26:06.824Z,87.37
2023-02-15T19:28:33.178Z,87.00
2023-02-15T19:30:34.676Z,87.84
2023-02-15T19:32:36.208Z,87.39
2023-02-15T19:34:37.816Z,87.65
2023-02-15T19:36:39.611Z,87.95
2023-02-15T19:38:41.727Z,87.50
2023-02-15T19:40:43.552Z,87.32
2023-02-15T19:42:45.023Z,88.30
2023-02-15T19:44:46.489Z,87.98
2023-02-15T19:46:48.404Z,87.80
2023-02-15T19:48:51.078Z,87.62
2023-02-15T19:50:52.922Z,87.86
2023-02-15T19:52:54.504Z,87.81
2023-02-15T19:54:56.066Z,88.32
2023-02-15T19:56:57.800Z,88.26
2023-02-15T19:58:59.339Z,88.39
2023-02-15T20:01:02.258Z,88.18
2023-02-15T20:03:03.937Z,88.88
2023-02-15T20:05:05.833Z,88.98
2023-02-15T20:07:16.548Z,88.79
2023-02-15T20:09:25.357Z,88.59
2023-02-15T20:11:26.762Z,89.23
2023-02-15T20:13:29.016Z,89.11
2023-02-15T20:15:33.643Z,89.30
2023-02-15T20:17:35.173Z,89.01
2023-02-15T20:19:39.000Z,88.92
2023-02-15T20:21:41.678Z,89.65
2023-02-15T20:23:43.169Z,89.77
2023-02-15T20:25:44.867Z,89.68
2023-02-15T20:27:47.255Z,89.53
2023-02-15T20:29:50.462Z,89.53
2023-02-15T20:31:55.206Z,89.62
2023-02-15T20:33:58.514Z,90.21
2023-02-15T20:36:00.078Z,89.26
2023-02-15T20:38:04.215Z,89.60
2023-02-15T20:40:17.874Z,89.71
2023-02-15T20:42:19.653Z,89.99
2023-02-15T20:44:31.073Z,89.23
2023-02-15T20:46:32.569Z,90.19
2023-02-15T20:48:34.100Z,89.99
2023-02-15T20:50:35.777Z,90.29
2023-02-15T20:52:37.304Z,89.72
2023-02-15T20:54:39.267Z,89.75
2023-02-15T20:56:40.834Z,89.73
2023-02-15T20:58:42.467Z,89.48
2023-02-15T21:00:43.961Z,89.98
2023-02-15T21:02:47.354Z,89.72
2023-02-15T21:04:49.164Z,90.35
2023-02-15T21:06:50.951Z,89.71
2023-02-15T21:08:52.424Z,89.94
2023-02-15T21:10:54.701Z,89.83
2023-02-15T21:12:58.550Z,89.96
2023-02-15T21:14:59.998Z,89.38
2023-02-15T21:17:01.477Z,90.23
2023-02-15T21:19:02.950Z,89.91
2023-02-15T21:21:06.419Z,90.49
2023-02-15T21:23:13.801Z,90.40
2023-02-15T21:25:20.239Z,90.42
2023-02-15T21:27:22.324Z,90.08
2023-02-15T21:29:26.839Z,90.07
2023-02-15T21:31:28.715Z,90.02
2023-02-15T21:33:30.298Z,90.56
2023-02-15T21:35:31.762Z,90.07
2023-02-15T21:37:36.376Z,90.70
2023-02-15T21:39:37.903Z,90.44
2023-02-15T21:42:04.421Z,90.45
2023-02-15T21:44:39.468Z,90.77
2023-02-15T21:46:59.426Z,90.46
2023-02-15T21:49:04.729Z,90.44
2023-02-15T21:51:24.708Z,90.08
2023-02-15T21:53:34.635Z,90.66
2023-02-15T21:55:36.121Z,90.76
2023-02-15T21:57:37.558Z,90.47
2023-02-15T21:59:39.002Z,90.15
2023-02-15T22:01:42.862Z,90.61
2023-02-15T22:03:44.338Z,90.47
2023-02-15T22:05:45.820Z,90.28
2023-02-15T22:07:47.799Z,90.59
2023-02-15T22:09:49.389Z,90.71
2023-02-15T22:11:52.841Z,90.68
2023-02-15T22:13:54.363Z,90.29
2023-02-15T22:15:56.774Z,90.62
2023-02-15T22:17:58.223Z,91.08
2023-02-15T22:20:00.011Z,91.35
2023-02-15T22:22:01.494Z,91.22
2023-02-15T22:24:03.049Z,90.99
2023-02-15T22:26:14.378Z,90.99
2023-02-15T22:28:16.852Z,90.94
2023-02-15T22:30:32.847Z,91.46
2023-02-15T22:32:34.443Z,91.09
2023-02-15T22:34:36.091Z,91.19
2023-02-15T22:36:38.876Z,91.21
2023-02-15T22:38:40.323Z,90.87
2023-02-15T22:40:41.875Z,91.27
2023-02-15T22:42:47.322Z,91.08
2023-02-15T22:44:48.869Z,91.45
2023-02-15T22:46:51.204Z,91.39
2023-02-15T22:48:52.961Z,92.08
2023-02-15T22:50:54.971Z,92.53
2023-02-15T22:52:56.772Z,92.49
2023-02-15T22:54:58.222Z,92.24
2023-02-15T22:57:00.801Z,92.45
2023-02-15T22:59:05.946Z,92.25
2023-02-15T23:01:21.766Z,92.04
2023-02-15T23:03:28.830Z,91.67
2023-02-15T23:05:31.252Z,91.89
2023-02-15T23:07:32.834Z,91.56
2023-02-15T23:09:34.291Z,91.77
2023-02-15T23:11:35.846Z,92.07
2023-02-15T23:13:38.108Z,91.86
2023-02-15T23:15:41.663Z,91.50
2023-02-15T23:17:43.124Z,91.64
2023-02-15T23:19:44.719Z,91.71
2023-02-15T23:21:46.478Z,92.21
2023-02-15T23:23:54.320Z,92.65
2023-02-15T23:25:56.180Z,91.96
2023-02-15T23:27:57.651Z,92.64
2023-02-15T23:29:59.128Z,93.15
2023-02-15T23:32:00.770Z,92.97
2023-02-15T23:34:13.793Z,92.93
2023-02-15T23:36:24.517Z,92.55
2023-02-15T23:38:30.894Z,92.24
2023-02-15T23:40:50.739Z,93.14
2023-02-15T23:42:52.221Z,92.91
2023-02-15T23:44:53.685Z,92.59
2023-02-15T23:46:56.558Z,92.97
2023-02-15T23:48:58.078Z,93.08
2023-02-15T23:50:59.887Z,93.44
2023-02-15T23:53:01.357Z,93.15
2023-02-15T23:55:02.815Z,92.70
2023-02-15T23:57:04.583Z,92.79
2023-02-15T23:59:06.658Z,92.98
